createdAt,value
2023-03-02T00:02:05.183Z,11.73
2023-03-02T00:04:53.348Z,12.00
2023-03-02T00:07:34.977Z,13.70
2023-03-02T00:10:01.770Z,14.05
2023-03-02T00:12:31.837Z,14.20
2023-03-02T00:14:58.360Z,14.65
2023-03-02T00:17:27.815Z,13.35
2023-03-02T00:20:10.318Z,12.05
2023-03-02T00:22:42.074Z,12.98
2023-03-02T00:25:10.530Z,13.05
2023-03-02T00:27:39.679Z,14.30
2023-03-02T00:30:08.068Z,14.32
2023-03-02T00:32:35.055Z,12.32
2023-03-02T00:35:01.605Z,13.80
2023-03-02T00:37:28.266Z,12.25
2023-03-02T00:40:01.614Z,14.18
2023-03-02T00:42:28.413Z,11.88
2023-03-02T00:44:54.979Z,12.30
2023-03-02T00:47:21.559Z,12.48
2023-03-02T00:49:49.417Z,12.93
2023-03-02T00:52:17.102Z,11.93
2023-03-02T00:54:43.623Z,12.30
2023-03-02T00:57:10.248Z,11.93
2023-03-02T00:59:39.925Z,12.68
2023-03-02T01:02:06.969Z,12.15
2023-03-02T01:04:36.308Z,10.90
2023-03-02T01:07:15.569Z,12.70
2023-03-02T01:09:43.433Z,13.23
2023-03-02T01:12:11.280Z,11.63
2023-03-02T01:14:44.273Z,13.10
2023-03-02T01:17:11.837Z,11.90
2023-03-02T01:19:39.059Z,12.95
2023-03-02T01:22:06.420Z,13.15
2023-03-02T01:24:35.981Z,12.73
2023-03-02T01:27:02.587Z,12.60
2023-03-02T01:29:29.244Z,12.02
2023-03-02T01:32:01.082Z,13.40
2023-03-02T01:36:54.641Z,13.65
2023-03-02T01:39:22.564Z,12.35
2023-03-02T01:41:53.253Z,13.88
2023-03-02T01:44:41.588Z,14.73
2023-03-02T01:47:18.688Z,14.55
2023-03-02T01:49:49.969Z,13.25
2023-03-02T01:52:17.417Z,13.35
2023-03-02T01:54:49.956Z,14.05
2023-03-02T01:57:22.492Z,12.38
2023-03-02T01:59:53.869Z,12.13
2023-03-02T02:02:20.444Z,11.98
2023-03-02T02:04:49.118Z,13.65
2023-03-02T02:07:16.289Z,12.93
2023-03-02T02:09:51.616Z,13.20
2023-03-02T02:12:23.593Z,12.52
2023-03-02T02:14:50.768Z,12.93
2023-03-02T02:17:19.024Z,13.40
2023-03-02T02:20:19.587Z,15.10
2023-03-02T02:23:05.066Z,13.77
2023-03-02T02:25:49.765Z,13.18
2023-03-02T02:28:49.630Z,10.80
2023-03-02T02:31:21.233Z,12.88
2023-03-02T02:33:53.670Z,13.20
2023-03-02T02:36:23.725Z,14.32
2023-03-02T02:38:54.177Z,13.35
2023-03-02T02:41:25.707Z,12.88
2023-03-02T02:43:53.906Z,12.43
2023-03-02T02:46:20.645Z,12.85
2023-03-02T02:48:47.238Z,13.43
2023-03-02T02:51:21.352Z,13.48
2023-03-02T02:54:01.423Z,13.32
2023-03-02T02:56:33.825Z,11.85
2023-03-02T02:59:07.932Z,12.93
2023-03-02T03:01:35.936Z,13.60
2023-03-02T03:04:05.104Z,13.50
2023-03-02T03:06:42.050Z,13.93
2023-03-02T03:09:11.223Z,14.57
2023-03-02T03:11:43.050Z,13.63
2023-03-02T03:14:15.469Z,12.18
2023-03-02T03:16:45.940Z,13.68
2023-03-02T03:19:32.943Z,12.80
2023-03-02T03:22:03.464Z,12.90
2023-03-02T03:24:32.170Z,13.57
2023-03-02T03:26:59.177Z,14.07
2023-03-02T03:29:28.854Z,13.10
2023-03-02T03:31:57.042Z,14.40
2023-03-02T03:34:25.207Z,14.05
2023-03-02T03:36:52.143Z,15.63
2023-03-02T03:39:20.121Z,14.98
2023-03-02T03:41:46.797Z,14.40
2023-03-02T03:44:13.254Z,14.25
2023-03-02T03:46:39.789Z,12.80
2023-03-02T03:49:06.302Z,16.48
2023-03-02T03:51:35.580Z,14.30
2023-03-02T03:54:04.345Z,14.50
2023-03-02T03:56:33.905Z,16.17
2023-03-02T03:59:07.627Z,15.85
2023-03-02T04:01:38.086Z,15.32
2023-03-02T04:04:07.342Z,15.70
2023-03-02T04:06:34.712Z,14.57
2023-03-02T04:09:04.878Z,14.57
2023-03-02T04:11:34.209Z,15.93
2023-03-02T04:14:01.215Z,14.45
2023-03-02T04:16:28.556Z,14.05
2023-03-02T04:18:55.042Z,16.17
2023-03-02T04:21:21.660Z,13.82
2023-03-02T04:24:00.197Z,16.15
2023-03-02T04:26:27.278Z,15.30
2023-03-02T04:28:56.834Z,16.15
2023-03-02T04:31:25.514Z,15.95
2023-03-02T04:33:52.016Z,15.30
2023-03-02T04:36:19.651Z,15.15
2023-03-02T04:38:47.975Z,16.05
2023-03-02T04:41:22.349Z,16.52
2023-03-02T04:43:49.464Z,14.75
2023-03-02T04:46:20.045Z,17.52
2023-03-02T04:48:47.675Z,16.08
2023-03-02T04:51:24.212Z,14.93
2023-03-02T04:53:56.392Z,15.88
2023-03-02T04:56:23.124Z,14.82
2023-03-02T04:58:49.682Z,14.40
2023-03-02T05:01:18.067Z,14.07
2023-03-02T05:03:44.579Z,14.80
2023-03-02T05:06:11.380Z,14.85
2023-03-02T05:08:38.558Z,14.63
2023-03-02T05:11:08.325Z,17.08
2023-03-02T05:13:35.808Z,15.55
2023-03-02T05:16:02.685Z,14.18
2023-03-02T05:18:29.431Z,14.82
2023-03-02T05:20:55.986Z,15.18
2023-03-02T05:23:27.105Z,13.77
2023-03-02T05:25:56.934Z,14.93
2023-03-02T05:28:26.060Z,15.45
2023-03-02T05:30:53.245Z,14.05
2023-03-02T05:33:19.930Z,18.20
2023-03-02T05:35:47.712Z,16.38
2023-03-02T05:38:14.831Z,14.35
2023-03-02T05:40:43.607Z,16.00
2023-03-02T05:43:16.063Z,15.95
2023-03-02T05:45:42.629Z,14.98
2023-03-02T05:48:10.481Z,16.67
2023-03-02T05:50:46.138Z,16.17
2023-03-02T05:53:13.171Z,15.70
2023-03-02T05:55:39.679Z,14.50
2023-03-02T05:58:09.071Z,14.98
2023-03-02T06:00:35.730Z,15.35
2023-03-02T06:03:02.313Z,16.42
2023-03-02T06:05:28.842Z,17.40
2023-03-02T06:07:55.262Z,16.30
2023-03-02T06:10:22.030Z,15.73
2023-03-02T06:12:48.499Z,14.82
2023-03-02T06:15:16.296Z,16.15
2023-03-02T06:17:42.918Z,16.10
2023-03-02T06:20:12.443Z,14.52
2023-03-02T06:22:45.254Z,13.65
2023-03-02T06:25:23.848Z,15.40
2023-03-02T06:27:51.742Z,14.68
2023-03-02T06:30:24.542Z,15.45
2023-03-02T06:32:51.717Z,16.50
2023-03-02T06:35:18.500Z,15.63
2023-03-02T06:37:46.124Z,17.25
2023-03-02T06:40:13.903Z,15.00
2023-03-02T06:42:41.958Z,18.38
2023-03-02T06:45:10.323Z,15.73
2023-03-02T06:47:37.116Z,16.85
2023-03-02T06:50:04.634Z,20.90
2023-03-02T06:52:31.166Z,17.65
2023-03-02T06:55:01.679Z,18.92
2023-03-02T06:57:34.091Z,17.42
2023-03-02T07:00:09.688Z,18.85
2023-03-02T07:02:37.237Z,18.98
2023-03-02T07:05:04.222Z,17.70
2023-03-02T07:07:30.734Z,18.40
2023-03-02T07:09:57.301Z,16.88
2023-03-02T07:12:23.772Z,18.05
2023-03-02T07:14:50.336Z,18.13
2023-03-02T07:17:16.837Z,15.95
2023-03-02T07:19:43.376Z,23.08
2023-03-02T07:22:09.881Z,17.05
2023-03-02T07:24:37.347Z,17.20
2023-03-02T07:27:04.383Z,20.05
2023-03-02T07:29:30.890Z,17.48
2023-03-02T07:32:00.275Z,18.95
2023-03-02T07:34:27.544Z,16.98
2023-03-02T07:36:55.341Z,16.30
2023-03-02T07:39:22.006Z,16.48
2023-03-02T07:41:48.703Z,16.25
2023-03-02T07:44:17.227Z,18.63
2023-03-02T07:46:43.744Z,17.02
2023-03-02T07:49:10.465Z,15.85
2023-03-02T07:51:37.253Z,16.80
2023-03-02T07:54:05.035Z,16.00
2023-03-02T07:56:31.672Z,18.50
2023-03-02T07:58:58.207Z,15.10
2023-03-02T08:01:26.010Z,17.08
2023-03-02T08:03:52.651Z,15.88
2023-03-02T08:06:19.153Z,18.05
2023-03-02T08:08:46.025Z,15.30
2023-03-02T08:11:15.867Z,18.23
2023-03-02T08:13:43.062Z,14.95
2023-03-02T08:16:11.640Z,15.52
2023-03-02T08:18:40.752Z,15.40
2023-03-02T08:21:22.244Z,17.45
2023-03-02T08:23:50.718Z,14.57
2023-03-02T08:26:18.740Z,15.43
2023-03-02T08:28:45.647Z,15.45
2023-03-02T08:31:13.320Z,14.40
2023-03-02T08:33:40.126Z,14.10
2023-03-02T08:36:10.683Z,15.30
2023-03-02T08:38:37.470Z,15.02
2023-03-02T08:41:10.761Z,13.55
2023-03-02T08:43:37.407Z,14.65
2023-03-02T08:46:04.059Z,14.43
2023-03-02T08:48:30.593Z,14.57
2023-03-02T08:51:07.184Z,13.27
2023-03-02T08:53:37.169Z,15.23
2023-03-02T08:56:04.234Z,14.18
2023-03-02T08:58:30.692Z,13.10
2023-03-02T09:00:57.206Z,12.95
2023-03-02T09:03:23.933Z,13.73
2023-03-02T09:05:51.035Z,15.38
2023-03-02T09:08:18.512Z,14.10
2023-03-02T09:10:45.137Z,13.27
2023-03-02T09:13:11.662Z,14.57
2023-03-02T09:15:38.173Z,14.45
2023-03-02T09:18:04.912Z,12.48
2023-03-02T09:20:32.185Z,14.05
2023-03-02T09:22:59.781Z,12.52
2023-03-02T09:25:26.286Z,12.05
2023-03-02T09:27:53.855Z,13.65
2023-03-02T09:30:20.324Z,13.65
2023-03-02T09:32:49.006Z,11.90
2023-03-02T09:35:15.691Z,13.15
2023-03-02T09:37:44.514Z,12.57
2023-03-02T09:40:22.256Z,12.95
2023-03-02T09:43:11.626Z,11.60
2023-03-02T09:45:50.129Z,11.88
2023-03-02T09:48:29.561Z,11.85
2023-03-02T09:51:05.413Z,11.55
2023-03-02T09:53:42.100Z,12.00
2023-03-02T09:56:20.054Z,11.75
2023-03-02T09:59:01.246Z,13.70
2023-03-02T10:01:36.521Z,13.05
2023-03-02T10:04:17.762Z,13.57
2023-03-02T10:06:46.709Z,13.15
2023-03-02T10:09:13.317Z,13.82
2023-03-02T10:11:44.445Z,12.43
2023-03-02T10:14:19.976Z,12.30
2023-03-02T10:17:10.065Z,12.93
2023-03-02T10:19:49.929Z,12.98
2023-03-02T10:22:20.384Z,13.23
2023-03-02T10:24:53.900Z,12.05
2023-03-02T10:27:26.294Z,11.30
2023-03-02T10:30:06.531Z,12.23
2023-03-02T10:32:37.422Z,12.70
2023-03-02T10:35:21.179Z,11.02
2023-03-02T10:37:48.324Z,12.10
2023-03-02T10:40:40.042Z,11.93
2023-03-02T10:43:15.363Z,11.38
2023-03-02T10:45:43.192Z,9.77
2023-03-02T10:48:12.732Z,11.45
2023-03-02T10:50:39.581Z,10.25
2023-03-02T10:53:25.233Z,11.23
2023-03-02T10:55:53.570Z,11.77
2023-03-02T10:58:20.149Z,10.65
2023-03-02T11:01:15.048Z,11.10
2023-03-02T11:03:42.658Z,10.10
2023-03-02T11:06:19.053Z,10.57
2023-03-02T11:08:58.445Z,11.38
2023-03-02T11:11:25.225Z,11.18
2023-03-02T11:13:51.754Z,11.02
2023-03-02T11:16:18.196Z,11.32
2023-03-02T11:18:52.425Z,10.45
2023-03-02T11:21:42.908Z,10.77
2023-03-02T11:24:18.474Z,10.75
2023-03-02T11:26:50.108Z,12.02
2023-03-02T11:29:16.624Z,10.57
2023-03-02T11:31:50.643Z,10.95
2023-03-02T11:34:20.092Z,11.30
2023-03-02T11:37:21.631Z,10.43
2023-03-02T11:39:55.103Z,10.63
2023-03-02T11:42:31.593Z,10.88
2023-03-02T11:45:06.250Z,10.25
2023-03-02T11:47:34.086Z,9.23
2023-03-02T11:50:05.394Z,10.48
2023-03-02T11:52:36.752Z,9.40
2023-03-02T11:55:18.400Z,9.70
2023-03-02T11:57:49.875Z,9.55
2023-03-02T12:00:38.997Z,9.65
2023-03-02T12:03:25.698Z,9.68
2023-03-02T12:05:52.098Z,10.30
2023-03-02T12:08:18.471Z,9.23
2023-03-02T12:10:57.201Z,9.55
2023-03-02T12:13:26.494Z,9.60
2023-03-02T12:15:53.297Z,8.88
2023-03-02T12:18:22.698Z,9.00
2023-03-02T12:21:05.594Z,9.05
2023-03-02T12:23:53.155Z,9.18
2023-03-02T12:26:19.568Z,9.23
2023-03-02T12:29:09.635Z,7.75
2023-03-02T12:31:56.509Z,9.25
2023-03-02T12:34:35.281Z,9.90
2023-03-02T12:37:08.258Z,10.73
2023-03-02T12:40:03.937Z,10.30
2023-03-02T12:42:52.009Z,8.50
2023-03-02T12:45:40.249Z,9.70
2023-03-02T12:48:20.459Z,10.73
2023-03-02T12:50:48.014Z,9.85
2023-03-02T12:53:19.578Z,10.82
2023-03-02T12:55:46.838Z,8.30
2023-03-02T12:58:23.896Z,9.05
2023-03-02T13:01:02.046Z,9.63
2023-03-02T13:03:31.632Z,9.18
2023-03-02T13:06:13.413Z,9.10
2023-03-02T13:08:43.106Z,11.13
2023-03-02T13:11:09.601Z,8.60
2023-03-02T13:13:43.041Z,8.35
2023-03-02T13:16:32.512Z,8.77
2023-03-02T13:19:05.854Z,10.07
2023-03-02T13:21:39.416Z,9.40
2023-03-02T13:24:36.037Z,8.52
2023-03-02T13:27:14.165Z,9.93
2023-03-02T13:29:40.710Z,8.45
2023-03-02T13:32:35.393Z,9.57
2023-03-02T13:35:07.421Z,9.90
2023-03-02T13:37:40.754Z,10.85
2023-03-02T13:40:27.400Z,12.05
2023-03-02T13:42:54.669Z,11.15
2023-03-02T13:45:23.439Z,9.35
2023-03-02T13:47:50.015Z,9.90
2023-03-02T13:50:22.290Z,10.70
2023-03-02T13:52:50.106Z,9.73
2023-03-02T13:55:19.532Z,9.60
2023-03-02T13:57:47.459Z,8.13
2023-03-02T14:00:16.874Z,8.63
2023-03-02T14:02:43.805Z,8.77
2023-03-02T14:05:17.722Z,9.85
2023-03-02T14:07:53.212Z,9.70
2023-03-02T14:10:20.721Z,9.05
2023-03-02T14:12:58.312Z,10.15
2023-03-02T14:15:25.358Z,10.10
2023-03-02T14:17:51.837Z,10.88
2023-03-02T14:20:20.342Z,10.93
2023-03-02T14:22:50.754Z,8.70
2023-03-02T14:25:20.478Z,10.02
2023-03-02T14:27:48.165Z,9.30
2023-03-02T14:30:20.182Z,9.35
2023-03-02T14:32:48.794Z,9.82
2023-03-02T14:35:16.756Z,10.73
2023-03-02T14:37:47.299Z,9.95
2023-03-02T14:40:18.535Z,9.10
2023-03-02T14:42:45.097Z,9.10
2023-03-02T14:45:12.409Z,10.02
2023-03-02T14:47:41.011Z,9.13
2023-03-02T14:50:08.137Z,9.65
2023-03-02T14:52:42.879Z,9.18
2023-03-02T14:55:19.858Z,9.80
2023-03-02T14:57:50.045Z,10.93
2023-03-02T15:00:16.881Z,10.55
2023-03-02T15:02:49.494Z,10.18
2023-03-02T15:05:16.403Z,11.05
2023-03-02T15:07:43.414Z,10.13
2023-03-02T15:10:18.818Z,9.57
2023-03-02T15:12:45.500Z,11.32
2023-03-02T15:15:12.740Z,11.43
2023-03-02T15:17:40.589Z,11.40
2023-03-02T15:20:08.186Z,11.00
2023-03-02T15:22:34.996Z,10.82
2023-03-02T15:25:01.468Z,11.20
2023-03-02T15:27:28.580Z,10.23
2023-03-02T15:29:56.872Z,10.45
2023-03-02T15:32:23.706Z,9.90
2023-03-02T15:34:50.161Z,9.60
2023-03-02T15:37:16.745Z,11.38
2023-03-02T15:39:44.504Z,10.40
2023-03-02T15:42:12.765Z,11.07
2023-03-02T15:44:40.472Z,10.10
2023-03-02T15:47:07.090Z,11.18
2023-03-02T15:49:33.621Z,10.15
2023-03-02T15:52:00.148Z,8.77
2023-03-02T15:54:29.426Z,9.48
2023-03-02T15:56:56.796Z,9.32
2023-03-02T15:59:25.558Z,9.55
2023-03-02T16:01:52.563Z,11.15
2023-03-02T16:04:19.888Z,9.65
2023-03-02T16:06:47.565Z,10.20
2023-03-02T16:09:14.081Z,10.32
2023-03-02T16:11:41.080Z,9.40
2023-03-02T16:14:07.597Z,10.15
2023-03-02T16:16:34.206Z,9.75
2023-03-02T16:19:01.224Z,10.23
2023-03-02T16:21:28.948Z,11.00
2023-03-02T16:24:03.300Z,9.65
2023-03-02T16:26:31.117Z,9.88
2023-03-02T16:28:57.720Z,10.60
2023-03-02T16:31:28.496Z,12.88
2023-03-02T16:33:57.510Z,10.10
2023-03-02T16:36:24.039Z,9.95
2023-03-02T16:38:52.234Z,9.60
2023-03-02T16:41:21.224Z,8.73
2023-03-02T16:43:53.758Z,12.45
2023-03-02T16:46:23.094Z,10.30
2023-03-02T16:48:57.233Z,9.77
2023-03-02T16:51:24.090Z,8.38
2023-03-02T16:53:50.653Z,9.55
2023-03-02T16:56:17.195Z,8.02
2023-03-02T16:58:46.130Z,8.98
2023-03-02T17:01:16.553Z,7.72
2023-03-02T17:03:44.190Z,8.95
2023-03-02T17:06:12.627Z,7.68
2023-03-02T17:08:39.482Z,8.00
2023-03-02T17:11:06.586Z,7.88
2023-03-02T17:13:33.223Z,9.40
2023-03-02T17:16:00.273Z,8.00
2023-03-02T17:18:27.901Z,8.02
2023-03-02T17:20:56.271Z,10.68
2023-03-02T17:23:23.480Z,9.88
2023-03-02T17:25:55.881Z,9.25
2023-03-02T17:28:22.643Z,9.32
2023-03-02T17:30:49.418Z,9.57
2023-03-02T17:33:18.238Z,8.77
2023-03-02T17:35:46.365Z,8.75
2023-03-02T17:38:13.212Z,8.15
2023-03-02T17:40:41.444Z,7.72
2023-03-02T17:43:11.454Z,8.40
2023-03-02T17:45:38.785Z,8.00
2023-03-02T17:48:05.669Z,7.00
2023-03-02T17:50:32.512Z,7.78
2023-03-02T17:52:59.941Z,9.73
2023-03-02T17:55:29.226Z,9.30
2023-03-02T17:57:55.690Z,11.40
2023-03-02T18:00:23.490Z,27.23
2023-03-02T18:02:50.512Z,38.13
2023-03-02T18:05:17.310Z,49.30
2023-03-02T18:07:54.757Z,11.57
2023-03-02T18:10:21.296Z,35.08
2023-03-02T18:12:48.497Z,18.98
2023-03-02T18:15:14.972Z,21.95
2023-03-02T18:17:41.605Z,20.60
2023-03-02T18:20:09.936Z,13.60
2023-03-02T18:22:36.386Z,16.45
2023-03-02T18:25:03.247Z,14.75
2023-03-02T18:27:31.842Z,15.35
2023-03-02T18:29:58.729Z,13.02
2023-03-02T18:32:25.872Z,14.40
2023-03-02T18:34:52.413Z,12.27
2023-03-02T18:37:19.065Z,10.95
2023-03-02T18:39:45.904Z,9.20
2023-03-02T18:42:12.798Z,17.27
2023-03-02T18:44:39.493Z,19.80
2023-03-02T18:47:07.507Z,16.70
2023-03-02T18:49:33.981Z,37.42
2023-03-02T18:52:05.709Z,27.33
2023-03-02T18:54:32.751Z,21.77
2023-03-02T18:57:00.068Z,26.92
2023-03-02T18:59:26.534Z,27.25
2023-03-02T19:01:55.185Z,34.30
2023-03-02T19:04:26.484Z,20.40
2023-03-02T19:06:55.714Z,30.65
2023-03-02T19:09:25.505Z,19.27
2023-03-02T19:11:52.090Z,22.30
2023-03-02T19:14:18.793Z,20.55
2023-03-02T19:16:46.003Z,19.70
2023-03-02T19:19:12.623Z,15.45
2023-03-02T19:21:39.105Z,26.38
2023-03-02T19:24:06.117Z,43.47
2023-03-02T19:26:33.056Z,48.25
2023-03-02T19:29:00.761Z,38.85
2023-03-02T19:31:27.876Z,24.90
2023-03-02T19:33:54.561Z,20.38
2023-03-02T19:36:21.024Z,16.38
2023-03-02T19:38:47.625Z,19.48
2023-03-02T19:41:17.117Z,16.20
2023-03-02T19:43:46.230Z,16.20
2023-03-02T19:46:15.161Z,19.13
2023-03-02T19:48:45.681Z,18.77
2023-03-02T19:51:13.769Z,15.43
2023-03-02T19:53:49.489Z,13.73
2023-03-02T19:56:16.577Z,14.20
2023-03-02T19:58:53.729Z,11.82
2023-03-02T20:01:22.582Z,13.77
2023-03-02T20:03:52.914Z,12.57
2023-03-02T20:06:21.563Z,14.07
2023-03-02T20:08:49.714Z,13.25
2023-03-02T20:11:17.431Z,14.02
2023-03-02T20:13:44.400Z,13.38
2023-03-02T20:16:13.735Z,14.45
2023-03-02T20:18:42.259Z,15.02
2023-03-02T20:21:08.904Z,13.18
2023-03-02T20:23:39.492Z,24.05
2023-03-02T20:26:08.960Z,18.30
2023-03-02T20:28:36.278Z,15.60
2023-03-02T20:31:08.916Z,13.13
2023-03-02T20:33:41.316Z,15.75
2023-03-02T20:36:09.335Z,13.30
2023-03-02T20:38:40.661Z,14.23
2023-03-02T20:41:09.977Z,21.90
2023-03-02T20:43:36.727Z,13.18
2023-03-02T20:46:04.712Z,13.40
2023-03-02T20:48:31.438Z,19.10
2023-03-02T20:50:58.678Z,17.75
2023-03-02T20:53:26.385Z,14.90
2023-03-02T20:55:52.850Z,26.98
2023-03-02T20:58:19.695Z,17.40
2023-03-02T21:00:46.337Z,14.25
2023-03-02T21:03:12.848Z,21.48
2023-03-02T21:05:41.378Z,13.10
2023-03-02T21:08:14.662Z,16.00
2023-03-02T21:10:43.050Z,13.48
2023-03-02T21:13:11.636Z,12.25
2023-03-02T21:15:38.407Z,12.43
2023-03-02T21:18:05.422Z,9.60
2023-03-02T21:20:34.099Z,15.70
2023-03-02T21:23:00.560Z,12.38
2023-03-02T21:25:28.411Z,11.98
2023-03-02T21:27:56.334Z,11.50
2023-03-02T21:30:27.932Z,11.70
2023-03-02T21:32:54.694Z,17.13
2023-03-02T21:35:21.994Z,11.52
2023-03-02T21:37:52.350Z,11.73
2023-03-02T21:40:23.867Z,10.13
2023-03-02T21:42:50.341Z,10.57
2023-03-02T21:45:18.517Z,10.88
2023-03-02T21:47:51.171Z,12.18
2023-03-02T21:50:24.573Z,10.15
2023-03-02T21:52:51.061Z,12.20
2023-03-02T21:55:17.579Z,11.25
2023-03-02T21:57:44.633Z,11.68
2023-03-02T22:00:24.055Z,12.13
2023-03-02T22:02:51.037Z,13.00
2023-03-02T22:05:18.586Z,10.38
2023-03-02T22:07:45.659Z,11.70
2023-03-02T22:10:23.983Z,11.43
2023-03-02T22:12:56.035Z,11.40
2023-03-02T22:15:24.264Z,10.77
2023-03-02T22:17:51.391Z,11.45
2023-03-02T22:20:19.826Z,13.00
2023-03-02T22:22:47.960Z,11.05
2023-03-02T22:25:17.274Z,9.32
2023-03-02T22:27:44.763Z,10.10
2023-03-02T22:30:23.557Z,10.43
2023-03-02T22:32:50.601Z,9.73
2023-03-02T22:35:26.506Z,9.57
2023-03-02T22:38:11.695Z,10.38
2023-03-02T22:40:38.505Z,11.52
2023-03-02T22:43:24.734Z,10.15
2023-03-02T22:45:52.277Z,9.45
2023-03-02T22:48:22.986Z,10.70
2023-03-02T22:50:50.296Z,9.60
2023-03-02T22:53:23.309Z,9.50
2023-03-02T22:55:54.224Z,9.30
2023-03-02T22:58:48.526Z,11.27
2023-03-02T23:01:47.559Z,10.60
2023-03-02T23:04:18.415Z,10.95
2023-03-02T23:06:56.098Z,10.23
2023-03-02T23:09:34.926Z,10.00
2023-03-02T23:12:19.574Z,11.85
2023-03-02T23:14:52.110Z,11.10
2023-03-02T23:17:22.516Z,10.13
2023-03-02T23:19:50.744Z,9.77
2023-03-02T23:22:17.630Z,10.10
2023-03-02T23:24:44.107Z,10.50
2023-03-02T23:27:11.340Z,9.60
2023-03-02T23:29:38.202Z,10.77
2023-03-02T23:32:05.081Z,10.00
2023-03-02T23:34:31.740Z,8.23
2023-03-02T23:36:59.579Z,9.77
2023-03-02T23:39:26.763Z,10.60
2023-03-02T23:41:55.656Z,11.02
2023-03-02T23:44:22.218Z,9.30
2023-03-02T23:46:49.323Z,9.98
2023-03-02T23:49:16.034Z,8.18
2023-03-02T23:51:43.448Z,9.55
2023-03-02T23:54:14.681Z,9.45
2023-03-02T23:56:41.196Z,10.43
2023-03-02T23:59:07.692Z,10.68
